Time;durP1;ratioP1;P1;durP2;ratioP2;P2;SDS_P1;SDS_P2;PMS_P1;PMS_P2;Temp;Humidity;BMP_temperature;BMP_pressure;BME280_temperature;BME280_humidity;BME280_pressure;Samples;Min_cycle;Max_cycle;Signal;HPM_P1;HPM_P2
2022/11/23 00:01:31;;;;;;;7.32;2.25;;;;;;;5.33;100.00;99259.03;5081243;28;20128;-83
2022/11/23 00:04:02;;;;;;;4.68;1.95;;;;;;;5.34;100.00;99264.22;5066479;28;20115;-82
2022/11/23 00:06:29;;;;;;;4.75;1.83;;;;;;;5.34;100.00;99266.81;5085449;28;20036;-83
2022/11/23 00:08:56;;;;;;;3.58;2.80;;;;;;;5.27;100.00;99265.16;5085669;28;20062;-84
2022/11/23 00:11:25;;;;;;;2.85;1.30;;;;;;;5.14;100.00;99272.19;5083305;28;20044;-83
2022/11/23 00:13:52;;;;;;;3.80;1.77;;;;;;;5.01;100.00;99265.41;5085845;28;20056;-85
2022/11/23 00:16:23;;;;;;;3.88;1.67;;;;;;;4.94;100.00;99261.97;5073647;28;20050;-83
2022/11/23 00:19:00;;;;;;;2.70;1.52;;;;;;;4.87;100.00;99261.16;5088622;28;20085;-83
2022/11/23 00:21:32;;;;;;;2.95;2.20;;;;;;;4.84;100.00;99266.38;5080305;28;20067;-83
2022/11/23 00:24:00;;;;;;;2.78;1.40;;;;;;;4.80;100.00;99269.88;5086284;28;20035;-84
2022/11/23 00:26:27;;;;;;;4.43;1.73;;;;;;;4.77;100.00;99268.19;5081305;28;20127;-82
2022/11/23 00:28:54;;;;;;;2.70;1.92;;;;;;;4.77;100.00;99273.38;5099962;28;20096;-83
2022/11/23 00:31:21;;;;;;;10.40;2.53;;;;;;;4.76;100.00;99270.78;5085719;28;20055;-83
2022/11/23 00:33:51;;;;;;;4.40;1.50;;;;;;;4.76;100.00;99265.59;5089215;28;20490;-83
2022/11/23 00:36:18;;;;;;;5.35;2.10;;;;;;;4.79;100.00;99266.41;5085139;28;20040;-84
2022/11/23 00:38:46;;;;;;;3.85;1.60;;;;;;;4.83;100.00;99266.41;5084790;28;20040;-85
2022/11/23 00:41:19;;;;;;;5.05;1.92;;;;;;;4.86;100.00;99274.16;5105763;28;20044;-83
2022/11/23 00:43:46;;;;;;;2.70;1.38;;;;;;;4.90;100.00;99268.06;5083326;28;20059;-83
2022/11/23 00:46:17;;;;;;;3.50;1.67;;;;;;;4.93;100.00;99270.66;5074794;28;20040;-82
2022/11/23 00:48:47;;;;;;;3.65;2.35;;;;;;;4.90;100.00;99263.75;5061611;28;20440;-82
2022/11/23 00:51:19;;;;;;;3.55;1.00;;;;;;;4.84;100.00;99261.22;5071531;28;20044;-85
2022/11/23 00:53:46;;;;;;;6.68;2.10;;;;;;;4.75;100.00;99269.06;5095497;28;20032;-83
2022/11/23 00:56:13;;;;;;;2.58;1.35;;;;;;;4.66;100.00;99267.38;5082452;28;20093;-84
2022/11/23 00:58:40;;;;;;;2.63;1.45;;;;;;;4.62;100.00;99263.94;5084136;28;20047;-84
2022/11/23 01:01:14;;;;;;;5.63;2.17;;;;;;;4.63;100.00;99268.28;5087157;28;20043;-83
2022/11/23 01:03:47;;;;;;;;;;;;;;;4.62;100.00;99260.50;5076441;28;20410;-83
2022/11/23 01:06:22;;;;;;;3.47;0.98;;;;;;;4.58;100.00;99267.44;5069969;28;20012;-86
2022/11/23 01:08:55;;;;;;;4.00;0.82;;;;;;;4.57;100.00;99260.53;5078218;28;20183;-83
2022/11/23 01:11:23;;;;;;;3.63;1.33;;;;;;;4.60;100.00;99259.66;5080064;28;20102;-84
2022/11/23 01:13:51;;;;;;;2.20;1.23;;;;;;;4.64;100.00;99258.75;5060383;28;20089;-83
2022/11/23 01:16:27;;;;;;;1.25;1.15;;;;;;;4.69;100.00;99264.75;5078025;28;20044;-83
2022/11/23 01:19:06;;;;;;;2.03;1.23;;;;;;;4.73;100.00;99270.78;5089751;28;20060;-84
2022/11/23 01:21:34;;;;;;;1.95;1.42;;;;;;;4.74;100.00;99263.00;5081015;28;20116;-84
2022/11/23 01:24:17;;;;;;;4.97;1.45;;;;;;;4.76;100.00;99268.19;5073804;28;20123;-86
2022/11/23 01:26:44;;;;;;;3.10;1.23;;;;;;;4.72;100.00;99264.75;5079739;28;20082;-82
2022/11/23 01:29:11;;;;;;;3.08;1.65;;;;;;;4.70;100.00;99273.41;5059699;28;20074;-84
2022/11/23 01:31:39;;;;;;;1.88;1.05;;;;;;;4.69;100.00;99271.69;5080935;28;20385;-83
2022/11/23 01:34:07;;;;;;;1.48;0.95;;;;;;;4.68;100.00;99278.63;5088377;28;20036;-84
2022/11/23 01:36:35;;;;;;;4.88;1.52;;;;;;;4.70;100.00;99276.00;5077509;28;20041;-84
2022/11/23 01:39:05;;;;;;;6.93;1.48;;;;;;;4.72;100.00;99279.44;5075981;28;20118;-84
2022/11/23 01:41:35;;;;;;;1.48;1.00;;;;;;;4.77;100.00;99277.66;5053213;28;20134;-84
2022/11/23 01:44:24;;;;;;;1.92;1.27;;;;;;;4.82;100.00;99280.25;5071362;28;20046;-84
2022/11/23 01:46:52;;;;;;;2.42;1.42;;;;;;;4.87;100.00;99274.13;5093820;28;20036;-84
2022/11/23 01:49:20;;;;;;;1.75;0.98;;;;;;;4.92;100.00;99279.28;5080065;28;20101;-84
2022/11/23 01:51:51;;;;;;;1.52;1.40;;;;;;;4.94;100.00;99275.81;5078161;28;20068;-85
2022/11/23 01:54:34;;;;;;;1.30;1.13;;;;;;;4.99;100.00;99280.09;5063560;28;20048;-83
2022/11/23 01:57:17;;;;;;;2.00;1.33;;;;;;;4.98;100.00;99271.47;5083308;28;20040;-83
2022/11/23 01:59:46;;;;;;;3.10;1.35;;;;;;;4.96;100.00;99278.41;5087119;28;20032;-84
2022/11/23 02:02:14;;;;;;;1.95;1.13;;;;;;;4.87;100.00;99270.69;5088573;28;20074;-86
2022/11/23 02:04:46;;;;;;;2.13;1.10;;;;;;;4.78;100.00;99275.09;5099989;28;20035;-86
2022/11/23 02:07:14;;;;;;;4.03;1.35;;;;;;;4.71;100.00;99273.41;5084925;28;20058;-89
2022/11/23 02:09:42;;;;;;;2.05;1.08;;;;;;;4.71;100.00;99278.59;5091773;28;20033;-82
2022/11/23 02:12:15;;;;;;;2.53;2.33;;;;;;;4.78;100.00;99276.81;5084995;28;20068;-82
2022/11/23 02:14:43;;;;;;;3.70;1.50;;;;;;;4.85;100.00;99275.03;5086462;28;20090;-83
2022/11/23 02:17:10;;;;;;;1.40;1.08;;;;;;;4.92;100.00;99289.66;5084058;28;20040;-84
2022/11/23 02:19:47;;;;;;;3.75;1.90;;;;;;;4.96;100.00;99276.66;5084454;28;20068;-82
2022/11/23 02:22:29;;;;;;;6.22;1.80;;;;;;;5.00;100.00;99289.59;5077725;28;20083;-81
2022/11/23 02:25:01;;;;;;;1.92;1.55;;;;;;;5.03;100.00;99287.84;5062057;28;20387;-83
2022/11/23 02:27:28;;;;;;;4.25;1.67;;;;;;;5.06;100.00;99284.34;5072224;28;20044;-85
2022/11/23 02:29:56;;;;;;;4.05;2.03;;;;;;;5.10;100.00;99286.06;5076706;28;20185;-83
2022/11/23 02:32:28;;;;;;;4.40;1.63;;;;;;;5.12;100.00;99290.38;5085117;28;20116;-84
2022/11/23 02:34:58;;;;;;;2.17;1.08;;;;;;;5.13;100.00;99286.03;5091358;28;20119;-81
2022/11/23 02:37:25;;;;;;;1.40;1.25;;;;;;;5.12;100.00;99281.72;5072557;28;20082;-85
2022/11/23 02:39:57;;;;;;;1.33;1.23;;;;;;;5.10;100.00;99280.88;5075685;28;20040;-84
2022/11/23 02:42:25;;;;;;;5.57;1.20;;;;;;;5.08;100.00;99280.88;5079127;28;20122;-83
2022/11/23 02:45:48;;;;;;;3.40;1.10;;;;;;;5.07;100.00;99281.78;5057005;28;20040;-83
2022/11/23 02:48:15;;;;;;;2.25;1.20;;;;;;;5.04;100.00;99278.34;5088210;28;20411;-84
2022/11/23 02:50:42;;;;;;;4.50;1.48;;;;;;;5.01;100.00;99276.63;5056797;28;20101;-84
2022/11/23 02:53:09;;;;;;;3.03;1.55;;;;;;;5.01;100.00;99280.97;5057956;28;20071;-84
2022/11/23 02:55:36;;;;;;;1.95;1.17;;;;;;;5.01;100.00;99275.78;5088235;28;20047;-83
2022/11/23 02:58:04;;;;;;;4.53;1.83;;;;;;;5.00;100.00;99285.28;5077224;28;20054;-82
2022/11/23 03:00:34;;;;;;;2.15;0.98;;;;;;;5.00;100.00;99281.81;5078229;28;20040;-81
2022/11/23 03:03:03;;;;;;;7.22;1.02;;;;;;;5.03;100.00;99284.38;5073418;28;20984;-83
2022/11/23 03:05:29;;;;;;;4.95;1.48;;;;;;;5.03;100.00;99285.28;5077325;28;20039;-84
2022/11/23 03:07:56;;;;;;;1.33;1.20;;;;;;;5.04;100.00;99286.13;5091399;28;20044;-84
2022/11/23 03:10:23;;;;;;;2.88;1.13;;;;;;;4.99;100.00;99272.31;5072908;28;20123;-86
2022/11/23 03:12:49;;;;;;;5.20;1.55;;;;;;;4.95;100.00;99277.53;5070052;28;20037;-82
2022/11/23 03:15:16;;;;;;;2.10;1.00;;;;;;;4.95;100.00;99277.53;5078375;28;20060;-84
2022/11/23 03:17:43;;;;;;;3.80;1.10;;;;;;;5.00;100.00;99274.91;5074732;28;20054;-83
2022/11/23 03:20:13;;;;;;;2.30;1.65;;;;;;;5.05;100.00;99272.28;5074662;28;20127;-82
2022/11/23 03:22:39;;;;;;;3.10;1.30;;;;;;;5.12;100.00;99289.50;5057634;28;20231;-84
2022/11/23 03:25:07;;;;;;;2.67;1.45;;;;;;;5.16;100.00;99282.56;5085905;28;20051;-84
2022/11/23 03:27:33;;;;;;;5.60;1.33;;;;;;;5.18;100.00;99286.00;5083079;28;20036;-84
2022/11/23 03:30:01;;;;;;;1.88;1.42;;;;;;;5.15;100.00;99279.09;5073912;28;20050;-85
2022/11/23 03:32:29;;;;;;;1.33;1.10;;;;;;;5.14;100.00;99279.97;5052787;28;20054;-86
2022/11/23 03:34:59;;;;;;;2.63;1.65;;;;;;;5.11;100.00;99282.56;5078136;28;20048;-83
2022/11/23 03:37:25;;;;;;;3.08;0.95;;;;;;;5.12;100.00;99280.00;5074063;28;20750;-87
2022/11/23 03:39:52;;;;;;;1.98;1.20;;;;;;;5.13;100.00;99281.69;5057815;28;20097;-84
2022/11/23 03:42:19;;;;;;;2.53;1.15;;;;;;;5.15;100.00;99279.09;5057432;28;20047;-83
2022/11/23 03:44:45;;;;;;;3.97;1.20;;;;;;;5.14;100.00;99283.41;5062875;28;20039;-84
2022/11/23 03:47:12;;;;;;;1.52;1.30;;;;;;;5.13;100.00;99281.69;5075690;28;20044;-83
2022/11/23 03:49:38;;;;;;;6.00;1.40;;;;;;;5.15;100.00;99273.91;5059280;28;20139;-85
2022/11/23 03:52:05;;;;;;;2.72;1.00;;;;;;;5.17;100.00;99279.09;5074372;28;20043;-84
2022/11/23 03:54:32;;;;;;;3.58;1.35;;;;;;;5.18;100.00;99275.63;5076749;28;20032;-83
2022/11/23 03:56:58;;;;;;;5.72;1.40;;;;;;;5.19;100.00;99278.19;5078225;28;20029;-83
2022/11/23 03:59:25;;;;;;;2.67;0.90;;;;;;;5.18;100.00;99273.88;5083648;28;20101;-87
2022/11/23 04:01:53;;;;;;;2.17;1.00;;;;;;;5.12;100.00;99264.44;5093802;28;20044;-83
2022/11/23 04:04:20;;;;;;;3.35;1.30;;;;;;;5.10;100.00;99267.91;5054445;28;20036;-84
2022/11/23 04:06:46;;;;;;;2.33;1.70;;;;;;;5.07;100.00;99275.69;5088095;28;20040;-82
2022/11/23 04:09:13;;;;;;;3.25;1.60;;;;;;;5.04;100.00;99274.00;5089531;28;20079;-82
2022/11/23 04:11:40;;;;;;;6.18;1.20;;;;;;;5.02;100.00;99273.16;5106124;28;20056;-83
2022/11/23 04:14:06;;;;;;;7.47;2.22;;;;;;;4.93;100.00;99281.88;5088037;28;20062;-81
2022/11/23 04:16:33;;;;;;;4.80;1.00;;;;;;;4.83;100.00;99277.63;5081217;28;20041;-82
2022/11/23 04:19:00;;;;;;;2.83;1.73;;;;;;;4.75;100.00;99276.84;5098673;28;20116;-81
2022/11/23 04:21:27;;;;;;;2.97;1.30;;;;;;;4.67;100.00;99278.59;5081462;28;20046;-86
2022/11/23 04:23:53;;;;;;;3.13;0.93;;;;;;;4.58;100.00;99272.63;5082058;28;20033;-82
2022/11/23 04:26:20;;;;;;;2.80;1.45;;;;;;;4.49;100.00;99279.63;5089157;28;20075;-86
2022/11/23 04:28:46;;;;;;;10.05;1.73;;;;;;;4.42;100.00;99273.59;5056452;28;20067;-82
2022/11/23 04:31:13;;;;;;;1.63;1.35;;;;;;;4.35;100.00;99275.34;5074659;28;20064;-84
2022/11/23 04:33:40;;;;;;;1.48;1.27;;;;;;;4.32;100.00;99282.31;5066398;28;20080;-83
2022/11/23 04:36:06;;;;;;;2.47;0.98;;;;;;;4.26;100.00;99283.19;5072517;28;20048;-85
2022/11/23 04:38:35;;;;;;;6.55;1.05;;;;;;;4.17;100.00;99281.50;5055338;28;20036;-84
2022/11/23 04:41:02;;;;;;;4.25;1.35;;;;;;;4.11;100.00;99281.53;5063791;28;20040;-84
2022/11/23 04:43:30;;;;;;;3.13;1.60;;;;;;;4.07;100.00;99287.59;5066260;28;20047;-86
2022/11/23 04:45:57;;;;;;;4.30;1.83;;;;;;;4.07;100.00;99287.59;5057235;28;20425;-83
2022/11/23 04:48:24;;;;;;;2.47;1.48;;;;;;;4.05;100.00;99287.59;5085747;28;20049;-86
2022/11/23 04:50:52;;;;;;;4.97;1.48;;;;;;;4.09;100.00;99291.91;5071082;28;20043;-83
2022/11/23 04:53:19;;;;;;;7.60;1.88;;;;;;;4.11;100.00;99292.75;5069825;28;20053;-88
2022/11/23 04:55:47;;;;;;;4.85;2.72;;;;;;;4.09;100.00;99301.41;5078928;28;20052;-86
2022/11/23 04:58:14;;;;;;;1.75;1.40;;;;;;;4.05;100.00;99294.50;5053280;28;20048;-84
2022/11/23 05:00:41;;;;;;;3.72;1.17;;;;;;;4.01;100.00;99296.25;5067282;28;20043;-84
2022/11/23 05:03:09;;;;;;;1.58;0.85;;;;;;;3.98;100.00;99297.13;5071208;28;20054;-85
2022/11/23 05:05:40;;;;;;;4.57;1.38;;;;;;;3.99;100.00;99308.34;5070507;28;20032;-86
2022/11/23 05:08:08;;;;;;;4.10;1.75;;;;;;;4.07;100.00;99305.72;5072451;28;20090;-86
2022/11/23 05:10:37;;;;;;;1.77;1.08;;;;;;;4.16;100.00;99310.00;5071391;28;20454;-85
2022/11/23 05:13:04;;;;;;;3.42;1.50;;;;;;;4.24;100.00;99309.09;5073967;28;20124;-84
2022/11/23 05:15:31;;;;;;;4.65;2.17;;;;;;;4.32;100.00;99300.44;5072665;28;20056;-84
2022/11/23 05:18:06;;;;;;;4.22;1.33;;;;;;;4.32;100.00;99303.88;5068762;28;20038;-85
2022/11/23 05:20:34;;;;;;;3.28;1.38;;;;;;;4.30;100.00;99306.47;5098123;28;20363;-84
2022/11/23 05:23:01;;;;;;;4.25;1.98;;;;;;;4.28;100.00;99304.78;5092079;28;20123;-84
2022/11/23 05:25:30;;;;;;;2.83;1.50;;;;;;;4.32;100.00;99308.22;5092128;28;20082;-83
2022/11/23 05:27:57;;;;;;;3.17;2.45;;;;;;;4.37;100.00;99303.84;5091060;28;20524;-85
2022/11/23 05:30:24;;;;;;;6.13;2.13;;;;;;;4.40;100.00;99309.88;5084978;28;20048;-84
2022/11/23 05:32:51;;;;;;;4.80;1.65;;;;;;;4.41;100.00;99316.78;5091144;28;20127;-85
2022/11/23 05:35:18;;;;;;;7.05;1.45;;;;;;;4.43;100.00;99303.81;5095463;28;20051;-85
2022/11/23 05:37:45;;;;;;;2.72;1.48;;;;;;;4.44;100.00;99306.38;5093489;28;20536;-86
2022/11/23 05:40:14;;;;;;;5.40;1.67;;;;;;;4.47;100.00;99313.28;5078161;28;20048;-84
2022/11/23 05:42:41;;;;;;;3.05;1.90;;;;;;;4.47;100.00;99308.09;5094615;28;20078;-84
2022/11/23 05:45:09;;;;;;;1.75;1.65;;;;;;;4.51;100.00;99311.53;5081433;28;20040;-83
2022/11/23 05:47:36;;;;;;;5.82;2.30;;;;;;;4.56;100.00;99315.84;5105070;28;20035;-83
2022/11/23 05:50:04;;;;;;;2.58;1.90;;;;;;;4.61;100.00;99318.41;5092465;28;20054;-84
2022/11/23 05:52:31;;;;;;;2.22;1.90;;;;;;;4.58;100.00;99321.03;5089216;28;20142;-83
2022/11/23 05:54:58;;;;;;;2.70;1.70;;;;;;;4.49;100.00;99323.66;5113179;28;20066;-84
2022/11/23 05:57:24;;;;;;;3.85;1.83;;;;;;;4.44;100.00;99319.34;5089719;28;20391;-84
2022/11/23 05:59:51;;;;;;;2.92;1.38;;;;;;;4.48;100.00;99317.59;5080968;28;20126;-83
2022/11/23 06:02:18;;;;;;;8.02;1.98;;;;;;;4.56;100.00;99321.03;5094769;28;20047;-84
2022/11/23 06:04:46;;;;;;;6.72;1.60;;;;;;;4.61;100.00;99313.22;5091477;28;20090;-84
2022/11/23 06:07:17;;;;;;;6.43;4.18;;;;;;;4.64;100.00;99319.25;5106931;28;20458;-84
2022/11/23 06:09:43;;;;;;;3.67;2.40;;;;;;;4.63;100.00;99322.69;5088588;28;20039;-84
2022/11/23 06:12:10;;;;;;;4.13;1.80;;;;;;;4.59;100.00;99323.59;5105454;28;20063;-83
2022/11/23 06:14:36;;;;;;;3.35;1.58;;;;;;;4.56;100.00;99323.63;5088226;28;20461;-82
2022/11/23 06:17:03;;;;;;;4.70;2.33;;;;;;;4.56;100.00;99320.16;5095864;28;20047;-83
2022/11/23 06:19:29;;;;;;;3.38;1.77;;;;;;;4.59;100.00;99323.59;5078633;28;20056;-83
2022/11/23 06:21:57;;;;;;;2.30;1.65;;;;;;;4.64;100.00;99320.97;5058279;28;20052;-82
2022/11/23 06:24:24;;;;;;;3.88;1.42;;;;;;;4.69;100.00;99323.53;5056130;28;20040;-84
2022/11/23 06:26:52;;;;;;;3.42;1.85;;;;;;;4.73;100.00;99328.69;5064158;28;20114;-83
2022/11/23 06:29:20;;;;;;;2.05;1.30;;;;;;;4.76;100.00;99331.25;5087712;28;20586;-84
2022/11/23 06:31:47;;;;;;;8.55;2.65;;;;;;;4.82;100.00;99339.88;5053132;28;20481;-84
2022/11/23 06:34:14;;;;;;;3.58;1.50;;;;;;;4.82;100.00;99338.13;5069015;28;20036;-82
2022/11/23 06:36:42;;;;;;;6.07;2.17;;;;;;;4.82;100.00;99332.09;5074158;28;20575;-83
2022/11/23 06:39:09;;;;;;;4.68;2.03;;;;;;;4.73;100.00;99343.38;5073313;28;20040;-84
2022/11/23 06:41:36;;;;;;;2.83;2.00;;;;;;;4.56;100.00;99339.19;5053811;28;20049;-87
2022/11/23 06:44:02;;;;;;;4.22;1.88;;;;;;;4.41;100.00;99344.44;5069374;28;20032;-84
2022/11/23 06:46:31;;;;;;;3.83;1.63;;;;;;;4.29;100.00;99337.59;5075963;28;20048;-85
2022/11/23 06:48:57;;;;;;;4.75;2.13;;;;;;;4.18;100.00;99350.56;5059580;28;20131;-84
2022/11/23 06:51:24;;;;;;;3.42;1.75;;;;;;;4.09;100.00;99351.47;5067876;28;20611;-88
2022/11/23 06:53:51;;;;;;;5.28;2.10;;;;;;;4.02;100.00;99360.13;5081378;28;20117;-85
2022/11/23 06:56:18;;;;;;;3.50;1.95;;;;;;;3.98;100.00;99361.00;5067722;28;20048;-82
2022/11/23 06:58:46;;;;;;;12.10;2.83;;;;;;;4.00;100.00;99363.59;5068539;28;20043;-85
2022/11/23 07:01:12;;;;;;;3.50;1.77;;;;;;;4.02;100.00;99367.03;5066018;28;20579;-85
2022/11/23 07:03:39;;;;;;;2.72;1.50;;;;;;;4.06;100.00;99363.56;5075527;28;20063;-84
2022/11/23 07:06:07;;;;;;;10.10;1.92;;;;;;;4.12;100.00;99371.31;5059810;28;20134;-84
2022/11/23 07:08:38;;;;;;;5.72;1.83;;;;;;;4.17;100.00;99376.47;5077806;28;20042;-84
2022/11/23 07:11:06;;;;;;;4.55;2.35;;;;;;;4.17;100.00;99373.88;5073999;28;20555;-83
2022/11/23 07:13:33;;;;;;;8.65;2.58;;;;;;;4.20;100.00;99363.50;5088549;28;20047;-85
2022/11/23 07:16:00;;;;;;;5.35;2.10;;;;;;;4.25;100.00;99365.22;5067449;28;20043;-84
2022/11/23 07:18:26;;;;;;;7.28;4.20;;;;;;;4.40;100.00;99373.78;5064520;28;20036;-83
2022/11/23 07:20:56;;;;;;;5.03;2.55;;;;;;;4.58;100.00;99376.28;5085405;28;20091;-86
2022/11/23 07:23:23;;;;;;;5.13;1.70;;;;;;;4.75;100.00;99377.94;5054214;28;20051;-84
2022/11/23 07:25:49;;;;;;;12.00;3.10;;;;;;;4.88;100.00;99382.19;5078083;28;20111;-85
2022/11/23 07:28:16;;;;;;;10.27;3.00;;;;;;;4.99;100.00;99376.91;5079406;28;20102;-82
2022/11/23 07:30:43;;;;;;;5.00;1.33;;;;;;;5.10;100.00;99372.53;5096369;28;20089;-86
2022/11/23 07:33:12;;;;;;;6.63;1.80;;;;;;;5.21;100.00;99380.22;5081902;28;20036;-85
2022/11/23 07:35:40;;;;;;;3.92;1.60;;;;;;;5.28;100.00;99381.91;5075619;28;20079;-84
2022/11/23 07:38:09;;;;;;;4.78;1.98;;;;;;;5.42;100.00;99384.38;5070979;28;20100;-81
2022/11/23 07:40:37;;;;;;;3.22;0.93;;;;;;;5.49;100.00;99387.78;5072073;28;20470;-85
2022/11/23 07:43:06;;;;;;;3.50;1.77;;;;;;;5.55;100.00;99386.88;5055309;28;20048;-83
2022/11/23 07:45:35;;;;;;;5.68;1.77;;;;;;;5.60;100.00;99385.09;5069297;28;20082;-83
2022/11/23 07:48:10;;;;;;;5.97;1.48;;;;;;;5.67;100.00;99386.78;5071545;28;20080;-85
2022/11/23 07:50:39;;;;;;;4.72;1.30;;;;;;;5.67;100.00;99393.69;5063522;28;20048;-86
2022/11/23 07:53:07;;;;;;;4.22;1.27;;;;;;;5.62;100.00;99396.34;5068152;28;20175;-84
2022/11/23 07:55:35;;;;;;;4.05;1.45;;;;;;;5.58;100.00;99392.91;5069450;28;20436;-83
2022/11/23 07:58:04;;;;;;;9.35;1.63;;;;;;;5.61;100.00;99392.00;5071513;28;20063;-86
2022/11/23 08:00:31;;;;;;;6.03;1.50;;;;;;;5.67;100.00;99404.94;5071416;28;20040;-83
2022/11/23 08:02:59;;;;;;;4.50;1.40;;;;;;;5.72;100.00;99402.28;5051006;28;20048;-83
2022/11/23 08:05:26;;;;;;;5.03;1.50;;;;;;;5.69;100.00;99402.31;5072740;28;20140;-82
2022/11/23 08:08:02;;;;;;;4.32;1.23;;;;;;;5.63;100.00;99403.22;5075064;28;20048;-82
2022/11/23 08:10:31;;;;;;;3.65;1.52;;;;;;;5.62;100.00;99402.38;5093923;28;20034;-84
2022/11/23 08:13:05;;;;;;;6.57;2.28;;;;;;;5.70;100.00;99402.31;5076459;28;20040;-82
2022/11/23 08:15:33;;;;;;;3.95;1.38;;;;;;;5.78;100.00;99397.03;5069290;28;20105;-83
2022/11/23 08:18:03;;;;;;;3.90;1.88;;;;;;;5.83;100.00;99400.47;5059017;28;20048;-83
2022/11/23 08:20:32;;;;;;;5.82;1.60;;;;;;;5.84;100.00;99403.91;5073794;28;20059;-83
2022/11/23 08:22:58;;;;;;;10.45;2.90;;;;;;;5.87;100.00;99406.50;5064824;28;20063;-83
2022/11/23 08:25:28;;;;;;;3.72;2.55;;;;;;;5.90;100.00;99409.03;5088026;28;20064;-84
2022/11/23 08:28:00;;;;;;;24.15;8.40;;;;;;;5.94;100.00;99402.94;5063949;28;20056;-83
2022/11/23 08:30:29;;;;;;;22.83;5.78;;;;;;;5.97;100.00;99408.97;5069163;28;20527;-83
2022/11/23 08:32:56;;;;;;;325.10;77.72;;;;;;;5.99;100.00;99410.72;5087274;28;20778;-82
2022/11/23 08:35:22;;;;;;;23.52;7.72;;;;;;;5.93;100.00;99403.81;5061928;28;20129;-84
2022/11/23 08:37:49;;;;;;;18.48;5.68;;;;;;;5.89;100.00;99412.50;5067488;28;20047;-83
2022/11/23 08:40:17;;;;;;;8.82;2.45;;;;;;;5.87;100.00;99411.69;5052285;28;20040;-81
2022/11/23 08:42:43;;;;;;;5.05;1.80;;;;;;;5.89;100.00;99409.91;5068048;28;20044;-85
2022/11/23 08:45:23;;;;;;;3.95;2.08;;;;;;;5.91;100.00;99409.03;5057369;28;20044;-85
2022/11/23 08:47:54;;;;;;;6.57;1.90;;;;;;;5.96;100.00;99409.84;5071414;28;20378;-87
2022/11/23 08:50:21;;;;;;;6.15;2.17;;;;;;;6.00;100.00;99400.31;5090107;28;20032;-85
2022/11/23 08:52:49;;;;;;;117.93;32.08;;;;;;;6.03;100.00;99407.22;5062173;28;20048;-83
2022/11/23 08:55:17;;;;;;;18.48;5.07;;;;;;;5.92;100.00;99405.56;5062456;28;20113;-84
2022/11/23 08:57:44;;;;;;;10.77;3.45;;;;;;;5.84;100.00;99407.38;5076619;28;20521;-81
2022/11/23 09:00:12;;;;;;;7.10;2.42;;;;;;;5.82;100.00;99405.69;5078158;28;20036;-87
2022/11/23 09:02:38;;;;;;;9.75;2.33;;;;;;;5.84;100.00;99414.28;5046274;28;20050;-83
2022/11/23 09:05:06;;;;;;;11.48;2.58;;;;;;;5.83;100.00;99416.03;5080506;28;20040;-85
2022/11/23 09:07:33;;;;;;;7.35;1.90;;;;;;;5.86;100.00;99417.75;5069822;28;20093;-84
2022/11/23 09:10:00;;;;;;;37.00;13.38;;;;;;;5.89;100.00;99421.19;5090301;28;20036;-84
2022/11/23 09:12:28;;;;;;;22.63;7.63;;;;;;;5.89;100.00;99413.41;5083437;28;20062;-84
2022/11/23 09:14:55;;;;;;;24.00;8.65;;;;;;;5.94;100.00;99416.81;5075964;28;20071;-83
2022/11/23 09:17:23;;;;;;;25.65;8.80;;;;;;;5.98;100.00;99417.66;5091571;28;20785;-84
2022/11/23 09:19:53;;;;;;;13.73;5.10;;;;;;;6.02;100.00;99421.06;5097637;28;20052;-84
2022/11/23 09:22:19;;;;;;;32.83;6.75;;;;;;;6.08;100.00;99421.88;5078304;28;20070;-82
2022/11/23 09:24:46;;;;;;;13.15;5.03;;;;;;;6.12;100.00;99425.31;5090474;28;20101;-84
2022/11/23 09:27:13;;;;;;;8.15;2.88;;;;;;;6.16;100.00;99426.16;5070900;28;20120;-84
2022/11/23 09:29:39;;;;;;;5.35;2.25;;;;;;;6.20;100.00;99425.22;5102068;28;20054;-82
2022/11/23 09:32:06;;;;;;;8.80;3.30;;;;;;;6.21;100.00;99424.34;5091566;28;20742;-83
2022/11/23 09:34:33;;;;;;;6.07;2.88;;;;;;;6.27;100.00;99422.53;5096430;28;20048;-83
2022/11/23 09:37:02;;;;;;;3.40;1.80;;;;;;;6.32;100.00;99425.06;5089025;28;20036;-82
2022/11/23 09:39:29;;;;;;;3.15;1.58;;;;;;;6.38;100.00;99434.56;5074720;28;20525;-83
2022/11/23 09:42:17;;;;;;;5.72;2.00;;;;;;;6.43;100.00;99436.22;5076940;28;20063;-83
2022/11/23 09:45:08;;;;;;;47.92;14.35;;;;;;;6.50;100.00;99424.00;5079574;28;20413;-81
2022/11/23 09:48:00;;;;;;;17.30;5.22;;;;;;;6.58;100.00;99429.13;5082194;28;20371;-89
2022/11/23 09:50:51;;;;;;;10.25;3.10;;;;;;;6.65;100.00;99429.88;5081845;28;20143;-83
2022/11/23 09:53:28;;;;;;;10.18;2.50;;;;;;;6.69;100.00;99424.66;5092191;28;20051;-82
2022/11/23 09:55:57;;;;;;;8.63;3.50;;;;;;;6.74;100.00;99430.66;5109410;27;20058;-83
2022/11/23 09:58:33;;;;;;;10.23;3.30;;;;;;;6.82;100.00;99434.88;5079937;28;20244;-82
2022/11/23 10:01:07;;;;;;;15.38;5.80;;;;;;;6.90;100.00;99433.91;5101471;28;20085;-83
2022/11/23 10:03:38;;;;;;;;;;;;;;;7.03;100.00;99432.00;5089679;28;20048;-83
2022/11/23 10:06:24;;;;;;;18.88;5.18;;;;;;;7.15;100.00;99436.16;5093992;28;19924;-83
2022/11/23 10:09:31;;;;;;;3.78;2.13;;;;;;;7.29;100.00;99428.16;5090261;28;20824;-83
2022/11/23 10:12:44;;;;;;;3.90;1.17;;;;;;;7.42;100.00;99431.44;5089175;28;20052;-82
2022/11/23 10:15:37;;;;;;;4.68;1.10;;;;;;;7.49;100.00;99437.41;5097735;28;20076;-83
2022/11/23 10:18:36;;;;;;;7.25;1.77;;;;;;;7.51;100.00;99435.59;5098003;28;20126;-84
2022/11/23 10:21:14;;;;;;;2.25;1.50;;;;;;;7.53;100.00;99436.47;5073332;28;20114;-83
2022/11/23 10:24:19;;;;;;;4.78;1.17;;;;;;;7.55;100.00;99435.53;5077409;28;20052;-83
2022/11/23 10:26:49;;;;;;;5.00;1.02;;;;;;;7.61;100.00;99434.56;5080300;28;20075;-83
2022/11/23 10:29:29;;;;;;;5.30;1.65;;;;;;;7.65;100.00;99432.78;5055961;28;20047;-82
2022/11/23 10:31:57;;;;;;;3.47;0.90;;;;;;;7.68;100.00;99436.22;5088211;28;20078;-86
2022/11/23 10:34:31;;;;;;;2.65;1.38;;;;;;;7.71;100.00;99435.28;5074297;28;20584;-83
2022/11/23 10:36:58;;;;;;;2.97;1.17;;;;;;;7.73;100.00;99436.13;5087289;28;20127;-81
2022/11/23 10:39:27;;;;;;;2.72;1.20;;;;;;;7.79;100.00;99438.63;5069124;28;20063;-83
2022/11/23 10:42:00;;;;;;;9.70;1.40;;;;;;;7.84;100.00;99433.34;5054888;28;20064;-81
2022/11/23 10:44:35;;;;;;;3.28;1.25;;;;;;;7.92;100.00;99437.50;5070498;28;20735;-81
2022/11/23 10:47:02;;;;;;;4.85;2.72;;;;;;;7.98;100.00;99433.09;5054643;28;20101;-82
2022/11/23 10:49:32;;;;;;;6.75;1.85;;;;;;;8.06;100.00;99445.09;5073573;28;20119;-83
2022/11/23 10:52:31;;;;;;;3.58;1.00;;;;;;;8.10;100.00;99436.31;5049339;28;20048;-82
2022/11/23 10:55:02;;;;;;;1.58;0.98;;;;;;;8.14;100.00;99442.34;5083144;28;20071;-83
2022/11/23 10:57:42;;;;;;;2.65;1.60;;;;;;;8.16;100.00;99448.41;5080835;28;20048;-83
2022/11/23 11:00:09;;;;;;;3.85;1.50;;;;;;;8.16;100.00;99451.03;5071629;28;20036;-84
2022/11/23 11:02:45;;;;;;;7.40;3.63;;;;;;;8.13;100.00;99440.63;5093023;28;20036;-84
2022/11/23 11:05:37;;;;;;;4.35;1.20;;;;;;;8.10;100.00;99445.91;5075002;28;20056;-85
2022/11/23 11:08:16;;;;;;;4.13;1.23;;;;;;;8.04;100.00;99446.84;5070946;28;20048;-86
2022/11/23 11:10:48;;;;;;;4.72;1.67;;;;;;;8.00;100.00;99440.00;5068942;28;20044;-82
2022/11/23 11:13:29;;;;;;;3.00;1.77;;;;;;;8.02;100.00;99442.59;5069717;28;20086;-82
2022/11/23 11:16:03;;;;;;;12.48;2.67;;;;;;;8.08;100.00;99434.63;5091973;28;20499;-81
2022/11/23 11:18:33;;;;;;;;;;;;;;;8.14;100.00;99433.69;5051815;28;20048;-84
2022/11/23 11:21:23;;;;;;;6.35;1.75;;;;;;;8.23;100.00;99431.75;5070271;28;19986;-83
2022/11/23 11:24:06;;;;;;;6.95;1.45;;;;;;;8.34;99.73;99431.53;5087568;28;20040;-86
2022/11/23 11:26:36;;;;;;;8.13;1.52;;;;;;;8.41;98.92;99434.91;5084970;28;20058;-84
2022/11/23 11:29:08;;;;;;;6.43;1.58;;;;;;;8.49;96.80;99426.97;5088486;28;20040;-88
2022/11/23 11:31:55;;;;;;;2.85;1.15;;;;;;;8.55;97.60;99422.47;5080686;28;20089;-85
2022/11/23 11:34:28;;;;;;;4.45;2.47;;;;;;;8.60;96.00;99419.75;5058111;28;20044;-84
2022/11/23 11:37:09;;;;;;;;;;;;;;;8.70;95.66;99423.03;5086076;28;20136;-84
2022/11/23 11:39:41;;;;;;;3.80;1.92;;;;;;;8.76;94.38;99417.69;5068448;28;19927;-83
2022/11/23 11:42:18;;;;;;;5.57;2.38;;;;;;;8.76;95.41;99422.91;5071598;28;21283;-82
2022/11/23 11:44:48;;;;;;;8.98;2.33;;;;;;;8.72;95.95;99416.91;5074561;28;20367;-83
2022/11/23 11:47:37;;;;;;;10.07;2.17;;;;;;;8.78;95.33;99421.97;5071316;28;20474;-83
2022/11/23 11:50:27;;;;;;;8.60;3.17;;;;;;;8.83;95.77;99413.22;5072726;28;20128;-84